MAS604 WSSS-WMKK
Flight info
| Callsign | MAS604 |
|---|---|
| Flight time | 0h 38m |
| Altitude | 30000 |
| Route | MASBO3A MASBO A457 GUPTA GUPTA1J |
| Aircraft | B738/M-SDE2E3FGHIRWXY/LB1 |
Departure
| Time | 2026-05-05 13:32 |
|---|---|
| Airport | Singapore Changi Airport (WSSS) |
Arrival
| Time | 2026-05-05 14:11 |
|---|---|
| Airport | Kuala Lumpur International Airport (WMKK) |
| Time | Latitude | Longitude | Altitude | Speed | Heading |
|---|---|---|---|---|---|
| 2026-05-05 13:14 | 1.35088 | 103.99043 | 29 ft | 0 kts | 84° |
| 2026-05-05 13:23 | 1.35087 | 103.99037 | 29 ft | 2 kts | 84° |
| 2026-05-05 13:23 | 1.35084 | 103.99017 | 29 ft | 3 kts | 84° |
| 2026-05-05 13:23 | 1.35082 | 103.98997 | 29 ft | 3 kts | 83° |
| 2026-05-05 13:24 | 1.35080 | 103.98981 | 29 ft | 3 kts | 89° |
| 2026-05-05 13:24 | 1.35083 | 103.98964 | 29 ft | 3 kts | 131° |
| 2026-05-05 13:24 | 1.35098 | 103.98955 | 29 ft | 3 kts | 169° |
| 2026-05-05 13:24 | 1.35111 | 103.98953 | 29 ft | 1 kts | 173° |
| 2026-05-05 13:25 | 1.35114 | 103.98952 | 29 ft | 0 kts | 173° |
| 2026-05-05 13:27 | 1.35089 | 103.98955 | 29 ft | 12 kts | 173° |
| 2026-05-05 13:27 | 1.34960 | 103.98972 | 29 ft | 20 kts | 168° |
| 2026-05-05 13:28 | 1.34862 | 103.99057 | 29 ft | 20 kts | 115° |
| 2026-05-05 13:28 | 1.34752 | 103.99094 | 29 ft | 19 kts | 203° |
| 2026-05-05 13:28 | 1.34633 | 103.99044 | 29 ft | 18 kts | 203° |
| 2026-05-05 13:28 | 1.34517 | 103.98995 | 29 ft | 18 kts | 203° |
| 2026-05-05 13:29 | 1.34404 | 103.98947 | 29 ft | 17 kts | 203° |
| 2026-05-05 13:29 | 1.34296 | 103.98902 | 29 ft | 17 kts | 203° |
| 2026-05-05 13:29 | 1.34191 | 103.98858 | 29 ft | 16 kts | 203° |
| 2026-05-05 13:29 | 1.34091 | 103.98815 | 29 ft | 15 kts | 203° |
| 2026-05-05 13:30 | 1.33995 | 103.98775 | 29 ft | 15 kts | 203° |
| 2026-05-05 13:30 | 1.33902 | 103.98736 | 29 ft | 14 kts | 202° |
| 2026-05-05 13:30 | 1.33814 | 103.98699 | 29 ft | 13 kts | 203° |
| 2026-05-05 13:30 | 1.33731 | 103.98664 | 29 ft | 13 kts | 203° |
| 2026-05-05 13:31 | 1.33647 | 103.98631 | 30 ft | 13 kts | 189° |
| 2026-05-05 13:31 | 1.33580 | 103.98673 | 29 ft | 12 kts | 114° |
| 2026-05-05 13:31 | 1.33548 | 103.98751 | 29 ft | 12 kts | 108° |
| 2026-05-05 13:31 | 1.33619 | 103.98809 | 30 ft | 28 kts | 22° |
| 2026-05-05 13:32 | 1.34040 | 103.98983 | 30 ft | 102 kts | 22° |
| 2026-05-05 13:32 | 1.34892 | 103.99346 | 42 ft | 160 kts | 24° |
| 2026-05-05 13:32 | 1.35981 | 103.99810 | 560 ft | 171 kts | 23° |
| 2026-05-05 13:32 | 1.36691 | 104.00109 | 1144 ft | 165 kts | 24° |
| 2026-05-05 13:33 | 1.37754 | 104.00560 | 1859 ft | 169 kts | 24° |
| 2026-05-05 13:33 | 1.38928 | 104.01057 | 2162 ft | 198 kts | 24° |
| 2026-05-05 13:33 | 1.40281 | 104.01629 | 2392 ft | 223 kts | 23° |
| 2026-05-05 13:33 | 1.42282 | 104.02473 | 2701 ft | 249 kts | 23° |
| 2026-05-05 13:34 | 1.43945 | 104.03173 | 3085 ft | 265 kts | 23° |
| 2026-05-05 13:34 | 1.45104 | 104.03661 | 3572 ft | 268 kts | 23° |
| 2026-05-05 13:34 | 1.46833 | 104.04388 | 4338 ft | 270 kts | 23° |
| 2026-05-05 13:34 | 1.48602 | 104.04958 | 5034 ft | 274 kts | 5° |
| 2026-05-05 13:35 | 1.50495 | 104.04732 | 5768 ft | 277 kts | 340° |
| 2026-05-05 13:35 | 1.52240 | 104.03905 | 6513 ft | 279 kts | 332° |
| 2026-05-05 13:35 | 1.53962 | 104.02965 | 7202 ft | 284 kts | 331° |
| 2026-05-05 13:35 | 1.55701 | 104.02000 | 7925 ft | 288 kts | 331° |
| 2026-05-05 13:36 | 1.57463 | 104.01024 | 8659 ft | 291 kts | 331° |
| 2026-05-05 13:36 | 1.59250 | 104.00045 | 9439 ft | 295 kts | 331° |
| 2026-05-05 13:36 | 1.61065 | 103.99056 | 10177 ft | 299 kts | 332° |
| 2026-05-05 13:36 | 1.62946 | 103.98035 | 10511 ft | 319 kts | 332° |
| 2026-05-05 13:37 | 1.64971 | 103.96940 | 10684 ft | 342 kts | 332° |
| 2026-05-05 13:37 | 1.67119 | 103.95779 | 11008 ft | 357 kts | 332° |
| 2026-05-05 13:37 | 1.69326 | 103.94588 | 11579 ft | 363 kts | 332° |
| 2026-05-05 13:37 | 1.71528 | 103.93400 | 12234 ft | 365 kts | 332° |
| 2026-05-05 13:38 | 1.73710 | 103.92078 | 12898 ft | 370 kts | 321° |
| 2026-05-05 13:38 | 1.75368 | 103.90095 | 13552 ft | 375 kts | 299° |
| 2026-05-05 13:38 | 1.76248 | 103.87636 | 14147 ft | 380 kts | 281° |
| 2026-05-05 13:38 | 1.76661 | 103.85016 | 14755 ft | 383 kts | 278° |
| 2026-05-05 13:39 | 1.77018 | 103.82356 | 15332 ft | 388 kts | 277° |
| 2026-05-05 13:39 | 1.77379 | 103.79664 | 15912 ft | 392 kts | 278° |
| 2026-05-05 13:39 | 1.77760 | 103.76950 | 16496 ft | 396 kts | 278° |
| 2026-05-05 13:39 | 1.78163 | 103.74210 | 17069 ft | 400 kts | 278° |
| 2026-05-05 13:40 | 1.78579 | 103.71442 | 17625 ft | 404 kts | 278° |
| 2026-05-05 13:40 | 1.78994 | 103.68687 | 18171 ft | 408 kts | 278° |
| 2026-05-05 13:40 | 1.79407 | 103.65868 | 18649 ft | 412 kts | 278° |
| 2026-05-05 13:40 | 1.79817 | 103.63019 | 19147 ft | 414 kts | 278° |
| 2026-05-05 13:41 | 1.80226 | 103.60163 | 19637 ft | 417 kts | 278° |
| 2026-05-05 13:41 | 1.80639 | 103.57280 | 20111 ft | 420 kts | 278° |
| 2026-05-05 13:41 | 1.81055 | 103.54378 | 20582 ft | 423 kts | 278° |
| 2026-05-05 13:41 | 1.81475 | 103.51459 | 21050 ft | 425 kts | 278° |
| 2026-05-05 13:42 | 1.81892 | 103.48563 | 21685 ft | 418 kts | 278° |
| 2026-05-05 13:42 | 1.82303 | 103.45704 | 21885 ft | 416 kts | 278° |
| 2026-05-05 13:42 | 1.82717 | 103.42829 | 21891 ft | 428 kts | 278° |
| 2026-05-05 13:42 | 1.83151 | 103.39818 | 21903 ft | 434 kts | 278° |
| 2026-05-05 13:43 | 1.83574 | 103.36882 | 21896 ft | 431 kts | 278° |
| 2026-05-05 13:43 | 1.84005 | 103.33886 | 21886 ft | 428 kts | 278° |
| 2026-05-05 13:43 | 1.84422 | 103.30987 | 21891 ft | 426 kts | 278° |
| 2026-05-05 13:43 | 1.85004 | 103.28056 | 21881 ft | 425 kts | 289° |
| 2026-05-05 13:44 | 1.86194 | 103.25406 | 21915 ft | 423 kts | 297° |
| 2026-05-05 13:44 | 1.87524 | 103.22775 | 21906 ft | 425 kts | 297° |
| 2026-05-05 13:44 | 1.88876 | 103.20136 | 21897 ft | 426 kts | 297° |
| 2026-05-05 13:44 | 1.90223 | 103.17486 | 21897 ft | 428 kts | 297° |
| 2026-05-05 13:45 | 1.91558 | 103.14825 | 21894 ft | 429 kts | 297° |
| 2026-05-05 13:45 | 1.92886 | 103.12149 | 21896 ft | 430 kts | 297° |
| 2026-05-05 13:45 | 1.94205 | 103.09473 | 21896 ft | 430 kts | 297° |
| 2026-05-05 13:45 | 1.95436 | 103.06968 | 21896 ft | 430 kts | 297° |
| 2026-05-05 13:46 | 1.96755 | 103.04280 | 21898 ft | 430 kts | 297° |
| 2026-05-05 13:46 | 1.97985 | 103.01775 | 21894 ft | 430 kts | 297° |
| 2026-05-05 13:46 | 1.99303 | 102.99091 | 21892 ft | 429 kts | 297° |
| 2026-05-05 13:46 | 2.00618 | 102.96412 | 21896 ft | 429 kts | 297° |
| 2026-05-05 13:47 | 2.01932 | 102.93738 | 21892 ft | 429 kts | 297° |
| 2026-05-05 13:47 | 2.03231 | 102.91093 | 21895 ft | 428 kts | 297° |
| 2026-05-05 13:47 | 2.04543 | 102.88423 | 21893 ft | 428 kts | 297° |
| 2026-05-05 13:47 | 2.05850 | 102.85750 | 21895 ft | 428 kts | 296° |
| 2026-05-05 13:48 | 2.07153 | 102.83067 | 21889 ft | 428 kts | 296° |
| 2026-05-05 13:48 | 2.08452 | 102.80387 | 21890 ft | 428 kts | 296° |
| 2026-05-05 13:48 | 2.09750 | 102.77707 | 21891 ft | 428 kts | 296° |
| 2026-05-05 13:48 | 2.11046 | 102.75033 | 21892 ft | 428 kts | 296° |
| 2026-05-05 13:49 | 2.12346 | 102.72352 | 21890 ft | 428 kts | 296° |
| 2026-05-05 13:49 | 2.13646 | 102.69673 | 21892 ft | 428 kts | 296° |
| 2026-05-05 13:49 | 2.14947 | 102.66992 | 21888 ft | 428 kts | 296° |
| 2026-05-05 13:49 | 2.16246 | 102.64314 | 21887 ft | 428 kts | 296° |
| 2026-05-05 13:50 | 2.17842 | 102.61822 | 21876 ft | 426 kts | 314° |
| 2026-05-05 13:50 | 2.20153 | 102.60003 | 21897 ft | 423 kts | 333° |
| 2026-05-05 13:50 | 2.22891 | 102.58978 | 21891 ft | 420 kts | 350° |
| 2026-05-05 13:50 | 2.25751 | 102.58789 | 21886 ft | 418 kts | 7° |
| 2026-05-05 13:51 | 2.28566 | 102.59435 | 21893 ft | 414 kts | 23° |
| 2026-05-05 13:51 | 2.31055 | 102.60870 | 21894 ft | 412 kts | 40° |
| 2026-05-05 13:51 | 2.32990 | 102.62946 | 21885 ft | 404 kts | 57° |
| 2026-05-05 13:51 | 2.34196 | 102.65421 | 21885 ft | 389 kts | 73° |
| 2026-05-05 13:52 | 2.34628 | 102.68022 | 21882 ft | 373 kts | 89° |
| 2026-05-05 13:52 | 2.34331 | 102.70539 | 21877 ft | 359 kts | 107° |
| 2026-05-05 13:52 | 2.33262 | 102.72733 | 21832 ft | 346 kts | 125° |
| 2026-05-05 13:52 | 2.31622 | 102.74449 | 21551 ft | 342 kts | 141° |
| 2026-05-05 13:53 | 2.29519 | 102.75670 | 20531 ft | 362 kts | 158° |
| 2026-05-05 13:53 | 2.26985 | 102.76202 | 19549 ft | 382 kts | 177° |
| 2026-05-05 13:53 | 2.24369 | 102.75874 | 18966 ft | 388 kts | 196° |
| 2026-05-05 13:53 | 2.21972 | 102.74670 | 18567 ft | 386 kts | 216° |
| 2026-05-05 13:54 | 2.20140 | 102.72729 | 18176 ft | 384 kts | 237° |
| 2026-05-05 13:54 | 2.19086 | 102.70285 | 17683 ft | 383 kts | 257° |
| 2026-05-05 13:54 | 2.18853 | 102.67650 | 17210 ft | 380 kts | 275° |
| 2026-05-05 13:54 | 2.19381 | 102.65075 | 16763 ft | 376 kts | 286° |
| 2026-05-05 13:55 | 2.20115 | 102.62575 | 16310 ft | 373 kts | 287° |
| 2026-05-05 13:55 | 2.20883 | 102.60106 | 15853 ft | 371 kts | 288° |
| 2026-05-05 13:55 | 2.21649 | 102.57656 | 15425 ft | 368 kts | 288° |
| 2026-05-05 13:55 | 2.22393 | 102.55253 | 15007 ft | 365 kts | 287° |
| 2026-05-05 13:56 | 2.23132 | 102.52828 | 14579 ft | 362 kts | 287° |
| 2026-05-05 13:56 | 2.23857 | 102.50426 | 14158 ft | 360 kts | 287° |
| 2026-05-05 13:56 | 2.24571 | 102.48040 | 13757 ft | 357 kts | 287° |
| 2026-05-05 13:56 | 2.25277 | 102.45671 | 13320 ft | 354 kts | 287° |
| 2026-05-05 13:57 | 2.25976 | 102.43322 | 12867 ft | 351 kts | 287° |
| 2026-05-05 13:57 | 2.26665 | 102.41003 | 12589 ft | 344 kts | 287° |
| 2026-05-05 13:57 | 2.27332 | 102.38756 | 12490 ft | 331 kts | 287° |
| 2026-05-05 13:57 | 2.27975 | 102.36589 | 12407 ft | 318 kts | 287° |
| 2026-05-05 13:58 | 2.28593 | 102.34507 | 12325 ft | 307 kts | 287° |
| 2026-05-05 13:58 | 2.29186 | 102.32512 | 12165 ft | 299 kts | 287° |
| 2026-05-05 13:58 | 2.29775 | 102.30527 | 11900 ft | 296 kts | 287° |
| 2026-05-05 13:58 | 2.30360 | 102.28557 | 11587 ft | 295 kts | 287° |
| 2026-05-05 13:59 | 2.31525 | 102.24633 | 10996 ft | 292 kts | 287° |
| 2026-05-05 13:59 | 2.32102 | 102.22687 | 10709 ft | 291 kts | 287° |
| 2026-05-05 14:00 | 2.33248 | 102.18824 | 10133 ft | 288 kts | 287° |
| 2026-05-05 14:00 | 2.33625 | 102.17554 | 9954 ft | 287 kts | 287° |
| 2026-05-05 14:00 | 2.34381 | 102.15007 | 9590 ft | 285 kts | 287° |
| 2026-05-05 14:00 | 2.34935 | 102.13138 | 9277 ft | 284 kts | 287° |
| 2026-05-05 14:01 | 2.35494 | 102.11252 | 8991 ft | 282 kts | 287° |
| 2026-05-05 14:01 | 2.36044 | 102.09399 | 8894 ft | 273 kts | 287° |
| 2026-05-05 14:01 | 2.36573 | 102.07615 | 8828 ft | 261 kts | 287° |
| 2026-05-05 14:01 | 2.37075 | 102.05923 | 8665 ft | 250 kts | 287° |
| 2026-05-05 14:02 | 2.37578 | 102.04244 | 8143 ft | 253 kts | 288° |
| 2026-05-05 14:02 | 2.38153 | 102.02580 | 7649 ft | 254 kts | 290° |
| 2026-05-05 14:02 | 2.38753 | 102.00917 | 7153 ft | 255 kts | 290° |
| 2026-05-05 14:02 | 2.39354 | 101.99246 | 6672 ft | 255 kts | 290° |
| 2026-05-05 14:03 | 2.39950 | 101.97574 | 6159 ft | 257 kts | 290° |
| 2026-05-05 14:03 | 2.40554 | 101.95876 | 5551 ft | 260 kts | 290° |
| 2026-05-05 14:03 | 2.41388 | 101.94302 | 4949 ft | 262 kts | 310° |
| 2026-05-05 14:03 | 2.42611 | 101.92956 | 4372 ft | 262 kts | 313° |
| 2026-05-05 14:04 | 2.43845 | 101.91610 | 3846 ft | 260 kts | 313° |
| 2026-05-05 14:04 | 2.45026 | 101.90301 | 3669 ft | 245 kts | 312° |
| 2026-05-05 14:04 | 2.46128 | 101.89070 | 3533 ft | 231 kts | 312° |
| 2026-05-05 14:04 | 2.47217 | 101.87913 | 3490 ft | 227 kts | 320° |
| 2026-05-05 14:05 | 2.48506 | 101.86998 | 3498 ft | 228 kts | 328° |
| 2026-05-05 14:05 | 2.49850 | 101.86141 | 3488 ft | 229 kts | 328° |
| 2026-05-05 14:05 | 2.51186 | 101.85280 | 3486 ft | 228 kts | 327° |
| 2026-05-05 14:05 | 2.52511 | 101.84410 | 3477 ft | 228 kts | 327° |
| 2026-05-05 14:06 | 2.53831 | 101.83560 | 3464 ft | 221 kts | 328° |
| 2026-05-05 14:06 | 2.55063 | 101.82771 | 3460 ft | 205 kts | 327° |
| 2026-05-05 14:06 | 2.56218 | 101.82005 | 3390 ft | 197 kts | 327° |
| 2026-05-05 14:06 | 2.57354 | 101.81242 | 3149 ft | 194 kts | 326° |
| 2026-05-05 14:07 | 2.58470 | 101.80489 | 2919 ft | 194 kts | 326° |
| 2026-05-05 14:07 | 2.59593 | 101.79730 | 2665 ft | 194 kts | 326° |
| 2026-05-05 14:07 | 2.60712 | 101.78975 | 2421 ft | 193 kts | 326° |
| 2026-05-05 14:07 | 2.61825 | 101.78223 | 2169 ft | 193 kts | 326° |
| 2026-05-05 14:08 | 2.62932 | 101.77476 | 1919 ft | 191 kts | 326° |
| 2026-05-05 14:08 | 2.64005 | 101.76751 | 1697 ft | 175 kts | 326° |
| 2026-05-05 14:08 | 2.64972 | 101.76098 | 1444 ft | 161 kts | 325° |
| 2026-05-05 14:08 | 2.65854 | 101.75503 | 1242 ft | 151 kts | 325° |
| 2026-05-05 14:09 | 2.66714 | 101.74922 | 1058 ft | 149 kts | 326° |
| 2026-05-05 14:09 | 2.67579 | 101.74338 | 884 ft | 151 kts | 326° |
| 2026-05-05 14:09 | 2.68449 | 101.73750 | 702 ft | 151 kts | 326° |
| 2026-05-05 14:09 | 2.69312 | 101.73142 | 442 ft | 150 kts | 326° |
| 2026-05-05 14:10 | 2.70158 | 101.72573 | 320 ft | 147 kts | 327° |
| 2026-05-05 14:10 | 2.71021 | 101.72007 | 202 ft | 148 kts | 327° |
| 2026-05-05 14:10 | 2.71880 | 101.71431 | 67 ft | 147 kts | 327° |
| 2026-05-05 14:10 | 2.72655 | 101.70913 | 48 ft | 116 kts | 326° |
| 2026-05-05 14:11 | 2.73205 | 101.70548 | 58 ft | 74 kts | 325° |
| 2026-05-05 14:11 | 2.73485 | 101.70391 | 52 ft | 22 kts | 24° |
| 2026-05-05 14:11 | 2.73552 | 101.70472 | 56 ft | 16 kts | 53° |
| 2026-05-05 14:11 | 2.73616 | 101.70557 | 57 ft | 15 kts | 53° |
| 2026-05-05 14:12 | 2.73708 | 101.70588 | 59 ft | 15 kts | 358° |
| 2026-05-05 14:12 | 2.73785 | 101.70641 | 61 ft | 15 kts | 53° |
| 2026-05-05 14:12 | 2.73871 | 101.70766 | 72 ft | 25 kts | 56° |
| 2026-05-05 14:12 | 2.73980 | 101.70922 | 67 ft | 27 kts | 55° |
| 2026-05-05 14:13 | 2.74081 | 101.71066 | 72 ft | 25 kts | 55° |
| 2026-05-05 14:13 | 2.74170 | 101.71206 | 65 ft | 23 kts | 58° |
| 2026-05-05 14:13 | 2.74260 | 101.71335 | 64 ft | 22 kts | 54° |
| 2026-05-05 14:13 | 2.74348 | 101.71461 | 65 ft | 22 kts | 56° |
| 2026-05-05 14:14 | 2.74430 | 101.71585 | 69 ft | 21 kts | 56° |
| 2026-05-05 14:14 | 2.74515 | 101.71694 | 69 ft | 17 kts | 20° |
| 2026-05-05 14:14 | 2.74618 | 101.71651 | 72 ft | 16 kts | 328° |
| 2026-05-05 14:14 | 2.74710 | 101.71587 | 67 ft | 16 kts | 323° |
| 2026-05-05 14:15 | 2.74798 | 101.71526 | 72 ft | 15 kts | 334° |
| 2026-05-05 14:15 | 2.74822 | 101.71515 | 66 ft | 0 kts | 325° |